sensor_id;sensor_type;location;lat;lon;timestamp;pressure;altitude;pressure_sealevel;temperature;humidity
50292;BME280;36190;54.980;73.388;2022-07-05T00:00:05;98010.00;;;15.86;85.12
50292;BME280;36190;54.980;73.388;2022-07-05T00:02:32;98006.53;;;15.85;85.02
50292;BME280;36190;54.980;73.388;2022-07-05T00:05:00;98002.75;;;15.86;85.02
50292;BME280;36190;54.980;73.388;2022-07-05T00:07:27;97998.47;;;15.85;85.09
50292;BME280;36190;54.980;73.388;2022-07-05T00:09:56;97994.69;;;15.86;85.07
50292;BME280;36190;54.980;73.388;2022-07-05T00:12:27;97991.72;;;15.82;85.05
50292;BME280;36190;54.980;73.388;2022-07-05T00:14:56;97995.78;;;15.85;84.88
50292;BME280;36190;54.980;73.388;2022-07-05T00:17:23;97993.63;;;15.87;84.96
50292;BME280;36190;54.980;73.388;2022-07-05T00:19:51;97981.53;;;15.90;84.84
50292;BME280;36190;54.980;73.388;2022-07-05T00:22:18;97990.16;;;15.92;84.76
50292;BME280;36190;54.980;73.388;2022-07-05T00:24:45;97987.22;;;15.93;84.76
50292;BME280;36190;54.980;73.388;2022-07-05T00:27:13;97992.34;;;16.00;84.67
50292;BME280;36190;54.980;73.388;2022-07-05T00:29:42;97989.94;;;16.04;84.46
50292;BME280;36190;54.980;73.388;2022-07-05T00:32:10;97990.25;;;16.07;84.34
50292;BME280;36190;54.980;73.388;2022-07-05T00:34:37;97997.00;;;16.15;84.13
50292;BME280;36190;54.980;73.388;2022-07-05T00:37:05;98004.00;;;16.21;83.86
50292;BME280;36190;54.980;73.388;2022-07-05T00:39:32;97996.22;;;16.25;83.66
50292;BME280;36190;54.980;73.388;2022-07-05T00:42:00;97992.19;;;16.28;83.43
50292;BME280;36190;54.980;73.388;2022-07-05T00:44:29;97991.91;;;16.34;83.33
50292;BME280;36190;54.980;73.388;2022-07-05T00:46:59;97990.06;;;16.40;83.25
50292;BME280;36190;54.980;73.388;2022-07-05T00:49:26;97985.25;;;16.47;82.83
50292;BME280;36190;54.980;73.388;2022-07-05T00:51:54;97983.91;;;16.55;82.74
50292;BME280;36190;54.980;73.388;2022-07-05T00:54:21;97991.72;;;16.62;82.46
50292;BME280;36190;54.980;73.388;2022-07-05T00:56:49;97989.03;;;16.67;82.26
50292;BME280;36190;54.980;73.388;2022-07-05T00:59:17;98020.28;;;16.73;81.99
50292;BME280;36190;54.980;73.388;2022-07-05T01:01:44;98016.78;;;16.83;81.71
50292;BME280;36190;54.980;73.388;2022-07-05T01:04:13;98021.63;;;16.91;81.58
50292;BME280;36190;54.980;73.388;2022-07-05T01:06:43;98023.53;;;16.96;81.43
50292;BME280;36190;54.980;73.388;2022-07-05T01:09:12;98033.50;;;16.96;81.05
50292;BME280;36190;54.980;73.388;2022-07-05T01:11:42;98024.06;;;16.93;81.13
50292;BME280;36190;54.980;73.388;2022-07-05T01:14:11;98032.69;;;16.90;81.13
50292;BME280;36190;54.980;73.388;2022-07-05T01:16:40;98023.00;;;16.89;81.24
50292;BME280;36190;54.980;73.388;2022-07-05T01:19:07;98020.84;;;16.91;81.36
50292;BME280;36190;54.980;73.388;2022-07-05T01:21:41;98018.41;;;16.95;81.25
50292;BME280;36190;54.980;73.388;2022-07-05T01:24:12;98019.78;;;16.97;81.17
50292;BME280;36190;54.980;73.388;2022-07-05T01:26:41;98005.53;;;17.02;81.20
50292;BME280;36190;54.980;73.388;2022-07-05T01:29:09;97999.03;;;17.08;80.82
50292;BME280;36190;54.980;73.388;2022-07-05T01:31:37;98005.25;;;17.09;80.67
50292;BME280;36190;54.980;73.388;2022-07-05T01:34:04;97996.06;;;17.10;80.50
50292;BME280;36190;54.980;73.388;2022-07-05T01:36:32;97998.78;;;17.10;80.52
50292;BME280;36190;54.980;73.388;2022-07-05T01:39:00;98000.13;;;17.12;80.44
50292;BME280;36190;54.980;73.388;2022-07-05T01:41:29;97991.50;;;17.21;80.07
50292;BME280;36190;54.980;73.388;2022-07-05T01:43:56;97996.59;;;17.27;79.85
50292;BME280;36190;54.980;73.388;2022-07-05T01:46:26;97996.06;;;17.30;79.78
50292;BME280;36190;54.980;73.388;2022-07-05T01:48:58;97989.06;;;17.40;79.79
50292;BME280;36190;54.980;73.388;2022-07-05T01:51:33;97994.19;;;17.41;79.57
50292;BME280;36190;54.980;73.388;2022-07-05T01:54:01;97991.97;;;17.49;79.35
50292;BME280;36190;54.980;73.388;2022-07-05T01:56:30;97993.59;;;17.60;79.03
50292;BME280;36190;54.980;73.388;2022-07-05T01:58:58;98001.91;;;17.74;78.80
50292;BME280;36190;54.980;73.388;2022-07-05T02:01:37;98000.50;;;17.92;78.24
50292;BME280;36190;54.980;73.388;2022-07-05T02:04:07;97995.88;;;18.03;78.03
50292;BME280;36190;54.980;73.388;2022-07-05T02:06:35;97996.91;;;18.18;77.67
50292;BME280;36190;54.980;73.388;2022-07-05T02:09:04;98005.25;;;18.26;77.34
50292;BME280;36190;54.980;73.388;2022-07-05T02:11:33;98003.56;;;18.36;76.94
50292;BME280;36190;54.980;73.388;2022-07-05T02:14:01;98007.28;;;18.45;76.86
50292;BME280;36190;54.980;73.388;2022-07-05T02:16:29;97999.44;;;18.49;76.42
50292;BME280;36190;54.980;73.388;2022-07-05T02:18:56;98002.91;;;18.54;76.41
50292;BME280;36190;54.980;73.388;2022-07-05T02:21:24;98002.13;;;18.54;76.26
50292;BME280;36190;54.980;73.388;2022-07-05T02:23:51;98021.53;;;18.61;76.14
50292;BME280;36190;54.980;73.388;2022-07-05T02:26:19;98010.66;;;18.72;75.77
50292;BME280;36190;54.980;73.388;2022-07-05T02:28:48;98015.94;;;18.87;75.23
50292;BME280;36190;54.980;73.388;2022-07-05T02:31:15;98027.19;;;19.00;74.85
50292;BME280;36190;54.980;73.388;2022-07-05T02:33:45;98034.16;;;19.11;74.52
50292;BME280;36190;54.980;73.388;2022-07-05T02:36:13;98030.84;;;19.19;74.22
50292;BME280;36190;54.980;73.388;2022-07-05T02:38:41;98031.41;;;19.16;74.17
50292;BME280;36190;54.980;73.388;2022-07-05T02:41:09;98031.97;;;19.13;74.08
50292;BME280;36190;54.980;73.388;2022-07-05T02:43:37;98032.88;;;19.03;74.03
50292;BME280;36190;54.980;73.388;2022-07-05T02:46:08;98027.47;;;19.03;74.04
50292;BME280;36190;54.980;73.388;2022-07-05T02:48:36;98040.06;;;19.18;73.88
50292;BME280;36190;54.980;73.388;2022-07-05T02:51:04;98039.97;;;19.29;73.29
50292;BME280;36190;54.980;73.388;2022-07-05T02:53:32;98042.53;;;19.44;73.19
50292;BME280;36190;54.980;73.388;2022-07-05T02:56:00;98032.66;;;19.59;72.64
50292;BME280;36190;54.980;73.388;2022-07-05T02:58:28;98040.63;;;19.74;72.24
50292;BME280;36190;54.980;73.388;2022-07-05T03:00:55;98040.16;;;19.91;71.90
50292;BME280;36190;54.980;73.388;2022-07-05T03:03:24;98049.28;;;20.01;71.58
50292;BME280;36190;54.980;73.388;2022-07-05T03:05:52;98041.84;;;20.12;71.18
50292;BME280;36190;54.980;73.388;2022-07-05T03:08:19;98036.94;;;20.14;70.79
50292;BME280;36190;54.980;73.388;2022-07-05T03:10:47;98048.88;;;20.13;70.79
50292;BME280;36190;54.980;73.388;2022-07-05T03:13:14;98040.19;;;20.16;70.66
50292;BME280;36190;54.980;73.388;2022-07-05T03:15:42;98038.44;;;20.25;70.63
50292;BME280;36190;54.980;73.388;2022-07-05T03:18:09;98041.53;;;20.38;70.18
50292;BME280;36190;54.980;73.388;2022-07-05T03:20:38;98044.63;;;20.50;69.85
50292;BME280;36190;54.980;73.388;2022-07-05T03:23:05;98048.34;;;20.54;69.63
50292;BME280;36190;54.980;73.388;2022-07-05T03:25:33;98046.22;;;20.51;69.38
50292;BME280;36190;54.980;73.388;2022-07-05T03:28:00;98041.25;;;20.58;69.59
50292;BME280;36190;54.980;73.388;2022-07-05T03:30:28;98038.34;;;20.74;69.20
50292;BME280;36190;54.980;73.388;2022-07-05T03:32:55;98034.63;;;20.89;68.68
50292;BME280;36190;54.980;73.388;2022-07-05T03:35:23;98045.59;;;20.98;68.40
50292;BME280;36190;54.980;73.388;2022-07-05T03:37:52;98045.50;;;21.03;68.01
50292;BME280;36190;54.980;73.388;2022-07-05T03:40:19;98036.19;;;21.09;68.02
50292;BME280;36190;54.980;73.388;2022-07-05T03:42:47;98041.97;;;21.22;67.68
50292;BME280;36190;54.980;73.388;2022-07-05T03:45:14;98036.44;;;21.27;67.42
50292;BME280;36190;54.980;73.388;2022-07-05T03:47:41;98041.88;;;21.27;67.25
50292;BME280;36190;54.980;73.388;2022-07-05T03:50:09;98044.00;;;21.30;67.40
50292;BME280;36190;54.980;73.388;2022-07-05T03:52:36;98041.19;;;21.35;67.49
50292;BME280;36190;54.980;73.388;2022-07-05T03:55:06;98035.91;;;21.44;66.97
50292;BME280;36190;54.980;73.388;2022-07-05T03:57:33;98045.09;;;21.62;66.98
50292;BME280;36190;54.980;73.388;2022-07-05T04:00:01;98049.16;;;21.79;66.71
50292;BME280;36190;54.980;73.388;2022-07-05T04:02:29;98050.75;;;21.94;66.17
50292;BME280;36190;54.980;73.388;2022-07-05T04:04:56;98050.34;;;22.01;65.66
50292;BME280;36190;54.980;73.388;2022-07-05T04:07:23;98042.69;;;22.03;65.21
50292;BME280;36190;54.980;73.388;2022-07-05T04:09:51;98045.31;;;22.08;65.33
50292;BME280;36190;54.980;73.388;2022-07-05T04:12:20;98043.63;;;22.12;64.92
50292;BME280;36190;54.980;73.388;2022-07-05T04:14:47;98057.56;;;22.19;64.84
50292;BME280;36190;54.980;73.388;2022-07-05T04:17:15;98060.81;;;22.21;64.74
50292;BME280;36190;54.980;73.388;2022-07-05T04:19:42;98074.19;;;22.32;64.63
50292;BME280;36190;54.980;73.388;2022-07-05T04:22:10;98070.34;;;22.33;64.41
50292;BME280;36190;54.980;73.388;2022-07-05T04:24:38;98068.25;;;22.30;64.30
50292;BME280;36190;54.980;73.388;2022-07-05T04:27:20;98060.19;;;22.24;64.32
50292;BME280;36190;54.980;73.388;2022-07-05T04:29:47;98058.28;;;22.11;64.37
50292;BME280;36190;54.980;73.388;2022-07-05T04:32:15;98061.22;;;22.01;64.62
50292;BME280;36190;54.980;73.388;2022-07-05T04:34:42;98056.19;;;21.94;64.50
50292;BME280;36190;54.980;73.388;2022-07-05T04:37:10;98064.63;;;21.92;64.59
50292;BME280;36190;54.980;73.388;2022-07-05T04:39:37;98065.03;;;22.00;64.32
50292;BME280;36190;54.980;73.388;2022-07-05T04:42:05;98059.72;;;22.08;63.82
50292;BME280;36190;54.980;73.388;2022-07-05T04:44:34;98066.84;;;22.18;63.57
50292;BME280;36190;54.980;73.388;2022-07-05T04:47:01;98061.81;;;22.25;63.47
50292;BME280;36190;54.980;73.388;2022-07-05T04:49:29;98066.25;;;22.21;63.51
50292;BME280;36190;54.980;73.388;2022-07-05T04:51:56;98060.81;;;22.21;63.59
50292;BME280;36190;54.980;73.388;2022-07-05T04:54:24;98066.03;;;22.32;63.42
50292;BME280;36190;54.980;73.388;2022-07-05T04:56:51;98065.13;;;22.50;62.83
50292;BME280;36190;54.980;73.388;2022-07-05T04:59:18;98071.81;;;22.67;62.60
50292;BME280;36190;54.980;73.388;2022-07-05T05:01:47;98073.81;;;22.75;61.89
50292;BME280;36190;54.980;73.388;2022-07-05T05:04:15;98060.22;;;22.75;62.14
50292;BME280;36190;54.980;73.388;2022-07-05T05:06:42;98061.09;;;22.85;61.98
50292;BME280;36190;54.980;73.388;2022-07-05T05:09:10;98064.09;;;22.97;61.49
50292;BME280;36190;54.980;73.388;2022-07-05T05:11:37;98059.16;;;23.22;61.21
50292;BME280;36190;54.980;73.388;2022-07-05T05:14:04;98061.75;;;23.50;60.19
50292;BME280;36190;54.980;73.388;2022-07-05T05:16:32;98054.84;;;23.75;59.89
50292;BME280;36190;54.980;73.388;2022-07-05T05:19:01;98061.47;;;23.83;59.14
50292;BME280;36190;54.980;73.388;2022-07-05T05:21:28;98067.69;;;23.84;58.69
50292;BME280;36190;54.980;73.388;2022-07-05T05:23:56;98063.66;;;23.81;58.57
50292;BME280;36190;54.980;73.388;2022-07-05T05:26:23;98066.91;;;23.83;58.45
50292;BME280;36190;54.980;73.388;2022-07-05T05:28:51;98071.59;;;24.00;58.47
50292;BME280;36190;54.980;73.388;2022-07-05T05:31:18;98076.03;;;24.28;57.51
50292;BME280;36190;54.980;73.388;2022-07-05T05:33:46;98065.66;;;24.48;57.30
50292;BME280;36190;54.980;73.388;2022-07-05T05:36:15;98074.81;;;24.52;56.99
50292;BME280;36190;54.980;73.388;2022-07-05T05:38:43;98077.34;;;24.39;57.36
50292;BME280;36190;54.980;73.388;2022-07-05T05:41:10;98074.94;;;24.29;57.26
50292;BME280;36190;54.980;73.388;2022-07-05T05:43:37;98078.13;;;24.31;57.62
50292;BME280;36190;54.980;73.388;2022-07-05T05:46:05;98081.88;;;24.53;57.26
50292;BME280;36190;54.980;73.388;2022-07-05T05:48:32;98067.97;;;24.90;56.32
50292;BME280;36190;54.980;73.388;2022-07-05T05:51:00;98072.31;;;25.17;55.81
50292;BME280;36190;54.980;73.388;2022-07-05T05:53:28;98071.63;;;25.38;55.85
50292;BME280;36190;54.980;73.388;2022-07-05T05:55:56;98080.75;;;25.68;55.54
50292;BME280;36190;54.980;73.388;2022-07-05T05:58:24;98082.72;;;25.98;55.20
50292;BME280;36190;54.980;73.388;2022-07-05T06:00:52;98081.59;;;25.99;54.33
50292;BME280;36190;54.980;73.388;2022-07-05T06:03:20;98075.53;;;25.85;54.60
50292;BME280;36190;54.980;73.388;2022-07-05T06:05:47;98084.75;;;25.71;55.02
50292;BME280;36190;54.980;73.388;2022-07-05T06:08:15;98086.72;;;25.53;55.49
50292;BME280;36190;54.980;73.388;2022-07-05T06:10:44;98088.34;;;25.27;55.88
50292;BME280;36190;54.980;73.388;2022-07-05T06:13:13;98078.88;;;25.07;56.10
50292;BME280;36190;54.980;73.388;2022-07-05T06:15:41;98086.75;;;25.00;56.35
50292;BME280;36190;54.980;73.388;2022-07-05T06:18:10;98084.66;;;24.79;56.51
50292;BME280;36190;54.980;73.388;2022-07-05T06:20:38;98083.50;;;24.71;56.98
50292;BME280;36190;54.980;73.388;2022-07-05T06:23:06;98091.19;;;24.69;57.28
50292;BME280;36190;54.980;73.388;2022-07-05T06:25:34;98086.72;;;24.74;56.92
50292;BME280;36190;54.980;73.388;2022-07-05T06:28:05;98088.03;;;24.85;57.29
50292;BME280;36190;54.980;73.388;2022-07-05T06:30:34;98087.06;;;25.16;56.50
50292;BME280;36190;54.980;73.388;2022-07-05T06:33:02;98088.34;;;25.36;56.10
50292;BME280;36190;54.980;73.388;2022-07-05T06:35:30;98088.66;;;25.52;55.73
50292;BME280;36190;54.980;73.388;2022-07-05T06:37:59;98107.25;;;25.68;55.60
50292;BME280;36190;54.980;73.388;2022-07-05T06:40:28;98098.22;;;25.76;55.45
50292;BME280;36190;54.980;73.388;2022-07-05T06:42:57;98103.88;;;25.71;54.91
50292;BME280;36190;54.980;73.388;2022-07-05T06:45:27;98113.69;;;25.63;54.99
50292;BME280;36190;54.980;73.388;2022-07-05T06:47:56;98112.41;;;25.43;55.34
50292;BME280;36190;54.980;73.388;2022-07-05T06:50:23;98118.66;;;25.35;55.58
50292;BME280;36190;54.980;73.388;2022-07-05T06:52:51;98117.88;;;25.25;55.52
50292;BME280;36190;54.980;73.388;2022-07-05T06:55:19;98112.09;;;25.18;55.43
50292;BME280;36190;54.980;73.388;2022-07-05T06:57:46;98124.00;;;25.22;55.49
50292;BME280;36190;54.980;73.388;2022-07-05T07:00:14;98132.47;;;25.38;55.67
50292;BME280;36190;54.980;73.388;2022-07-05T07:02:43;98131.03;;;25.59;55.24
50292;BME280;36190;54.980;73.388;2022-07-05T07:05:11;98145.41;;;25.86;54.52
50292;BME280;36190;54.980;73.388;2022-07-05T07:07:38;98142.94;;;26.11;54.05
50292;BME280;36190;54.980;73.388;2022-07-05T07:10:23;98146.19;;;26.43;53.42
50292;BME280;36190;54.980;73.388;2022-07-05T07:12:50;98154.09;;;26.44;53.35
50292;BME280;36190;54.980;73.388;2022-07-05T07:15:18;98154.06;;;26.53;53.09
50292;BME280;36190;54.980;73.388;2022-07-05T07:17:47;98152.25;;;26.57;52.35
50292;BME280;36190;54.980;73.388;2022-07-05T07:20:14;98152.25;;;26.57;52.66
50292;BME280;36190;54.980;73.388;2022-07-05T07:22:41;98141.63;;;26.56;52.69
50292;BME280;36190;54.980;73.388;2022-07-05T07:25:09;98152.09;;;26.54;52.56
50292;BME280;36190;54.980;73.388;2022-07-05T07:27:43;98140.84;;;26.55;52.52
50292;BME280;36190;54.980;73.388;2022-07-05T07:30:12;98157.28;;;26.46;52.42
50292;BME280;36190;54.980;73.388;2022-07-05T07:32:40;98156.53;;;26.67;52.42
50292;BME280;36190;54.980;73.388;2022-07-05T07:35:10;98166.09;;;27.12;51.64
50292;BME280;36190;54.980;73.388;2022-07-05T07:37:38;98155.59;;;27.36;51.36
50292;BME280;36190;54.980;73.388;2022-07-05T07:40:06;98167.88;;;27.29;51.17
50292;BME280;36190;54.980;73.388;2022-07-05T07:42:34;98162.47;;;26.99;51.41
50292;BME280;36190;54.980;73.388;2022-07-05T07:45:02;98160.81;;;26.77;52.31
50292;BME280;36190;54.980;73.388;2022-07-05T07:47:30;98174.41;;;26.64;52.40
50292;BME280;36190;54.980;73.388;2022-07-05T07:49:58;98165.13;;;26.57;52.57
50292;BME280;36190;54.980;73.388;2022-07-05T07:52:27;98172.69;;;26.51;51.84
50292;BME280;36190;54.980;73.388;2022-07-05T07:54:56;98169.03;;;26.47;52.19
50292;BME280;36190;54.980;73.388;2022-07-05T07:57:23;98168.34;;;26.50;52.00
50292;BME280;36190;54.980;73.388;2022-07-05T07:59:51;98167.03;;;26.56;52.32
50292;BME280;36190;54.980;73.388;2022-07-05T08:02:18;98177.88;;;26.74;52.28
50292;BME280;36190;54.980;73.388;2022-07-05T08:04:48;98180.34;;;26.97;52.00
50292;BME280;36190;54.980;73.388;2022-07-05T08:07:16;98174.16;;;27.30;51.59
50292;BME280;36190;54.980;73.388;2022-07-05T08:09:46;98185.50;;;27.62;50.46
50292;BME280;36190;54.980;73.388;2022-07-05T08:12:13;98174.56;;;28.08;50.05
50292;BME280;36190;54.980;73.388;2022-07-05T08:14:41;98185.25;;;28.35;48.98
50292;BME280;36190;54.980;73.388;2022-07-05T08:17:08;98188.38;;;28.12;48.89
50292;BME280;36190;54.980;73.388;2022-07-05T08:19:36;98190.78;;;27.67;49.69
50292;BME280;36190;54.980;73.388;2022-07-05T08:22:21;98199.88;;;27.59;50.04
50292;BME280;36190;54.980;73.388;2022-07-05T08:24:50;98198.78;;;27.51;49.68
50292;BME280;36190;54.980;73.388;2022-07-05T08:27:18;98201.72;;;27.25;49.50
50292;BME280;36190;54.980;73.388;2022-07-05T08:29:45;98206.13;;;26.96;49.92
50292;BME280;36190;54.980;73.388;2022-07-05T08:32:13;98205.44;;;26.99;49.84
50292;BME280;36190;54.980;73.388;2022-07-05T08:34:41;98212.81;;;27.28;49.75
50292;BME280;36190;54.980;73.388;2022-07-05T08:37:08;98208.88;;;27.59;49.64
50292;BME280;36190;54.980;73.388;2022-07-05T08:39:36;98209.31;;;27.83;49.09
50292;BME280;36190;54.980;73.388;2022-07-05T08:42:08;98212.47;;;28.06;48.79
50292;BME280;36190;54.980;73.388;2022-07-05T08:44:38;98218.06;;;28.10;48.47
50292;BME280;36190;54.980;73.388;2022-07-05T08:47:09;98214.84;;;28.08;48.13
50292;BME280;36190;54.980;73.388;2022-07-05T08:49:39;98206.78;;;27.78;48.11
50292;BME280;36190;54.980;73.388;2022-07-05T08:52:10;98223.09;;;27.53;48.76
50292;BME280;36190;54.980;73.388;2022-07-05T08:54:38;98221.56;;;27.22;49.66
50292;BME280;36190;54.980;73.388;2022-07-05T08:57:07;98222.06;;;26.85;50.06
50292;BME280;36190;54.980;73.388;2022-07-05T08:59:35;98215.13;;;26.57;50.77
50292;BME280;36190;54.980;73.388;2022-07-05T09:02:03;98223.34;;;26.57;50.94
50292;BME280;36190;54.980;73.388;2022-07-05T09:04:33;98229.75;;;26.61;50.63
50292;BME280;36190;54.980;73.388;2022-07-05T09:07:04;98228.81;;;26.57;50.93
50292;BME280;36190;54.980;73.388;2022-07-05T09:09:33;98241.72;;;26.39;51.38
50292;BME280;36190;54.980;73.388;2022-07-05T09:12:03;98243.09;;;26.06;51.52
50292;BME280;36190;54.980;73.388;2022-07-05T09:14:32;98252.91;;;25.63;52.55
50292;BME280;36190;54.980;73.388;2022-07-05T09:17:00;98252.06;;;25.27;52.86
50292;BME280;36190;54.980;73.388;2022-07-05T09:19:27;98255.53;;;25.02;53.45
50292;BME280;36190;54.980;73.388;2022-07-05T09:22:02;98257.28;;;24.89;53.52
50292;BME280;36190;54.980;73.388;2022-07-05T09:24:30;98257.91;;;24.85;54.33
50292;BME280;36190;54.980;73.388;2022-07-05T09:27:05;98271.22;;;24.87;55.12
50292;BME280;36190;54.980;73.388;2022-07-05T09:29:34;98280.34;;;24.82;54.95
50292;BME280;36190;54.980;73.388;2022-07-05T09:32:02;98270.88;;;24.80;54.92
50292;BME280;36190;54.980;73.388;2022-07-05T09:34:29;98282.69;;;24.66;55.54
50292;BME280;36190;54.980;73.388;2022-07-05T09:36:57;98288.66;;;24.45;56.01
50292;BME280;36190;54.980;73.388;2022-07-05T09:39:38;98288.94;;;24.35;56.97
50292;BME280;36190;54.980;73.388;2022-07-05T09:42:11;98297.38;;;24.25;57.10
50292;BME280;36190;54.980;73.388;2022-07-05T09:44:42;98305.28;;;24.12;57.93
50292;BME280;36190;54.980;73.388;2022-07-05T09:47:11;98308.28;;;23.88;58.53
50292;BME280;36190;54.980;73.388;2022-07-05T09:49:41;98315.41;;;23.61;59.14
50292;BME280;36190;54.980;73.388;2022-07-05T09:52:09;98320.28;;;23.36;60.27
50292;BME280;36190;54.980;73.388;2022-07-05T09:54:37;98317.44;;;23.13;61.29
50292;BME280;36190;54.980;73.388;2022-07-05T09:57:05;98317.66;;;22.89;61.82
50292;BME280;36190;54.980;73.388;2022-07-05T09:59:32;98319.06;;;22.72;62.87
50292;BME280;36190;54.980;73.388;2022-07-05T10:02:01;98322.66;;;22.53;63.63
50292;BME280;36190;54.980;73.388;2022-07-05T10:04:29;98322.78;;;22.43;63.63
50292;BME280;36190;54.980;73.388;2022-07-05T10:06:56;98319.56;;;22.41;63.65
50292;BME280;36190;54.980;73.388;2022-07-05T10:09:27;98316.63;;;22.37;64.06
50292;BME280;36190;54.980;73.388;2022-07-05T10:11:55;98309.66;;;22.31;64.10
50292;BME280;36190;54.980;73.388;2022-07-05T10:14:24;98317.09;;;22.25;64.48
50292;BME280;36190;54.980;73.388;2022-07-05T10:16:59;98321.53;;;22.21;65.01
50292;BME280;36190;54.980;73.388;2022-07-05T10:19:33;98314.50;;;22.20;65.14
50292;BME280;36190;54.980;73.388;2022-07-05T10:22:06;98326.53;;;22.14;64.74
50292;BME280;36190;54.980;73.388;2022-07-05T10:24:35;98317.94;;;22.07;64.89
50292;BME280;36190;54.980;73.388;2022-07-05T10:27:06;98323.75;;;22.00;65.17
50292;BME280;36190;54.980;73.388;2022-07-05T10:29:34;98332.63;;;21.87;65.33
50292;BME280;36190;54.980;73.388;2022-07-05T10:32:02;98323.31;;;21.74;65.50
50292;BME280;36190;54.980;73.388;2022-07-05T10:34:32;98326.16;;;21.63;65.79
50292;BME280;36190;54.980;73.388;2022-07-05T10:37:00;98324.84;;;21.61;65.71
50292;BME280;36190;54.980;73.388;2022-07-05T10:39:28;98329.44;;;21.60;65.96
50292;BME280;36190;54.980;73.388;2022-07-05T10:41:56;98325.72;;;21.56;66.30
50292;BME280;36190;54.980;73.388;2022-07-05T10:44:30;98329.44;;;21.60;66.83
50292;BME280;36190;54.980;73.388;2022-07-05T10:47:08;98328.97;;;21.77;66.90
50292;BME280;36190;54.980;73.388;2022-07-05T10:49:39;98334.47;;;21.91;66.14
50292;BME280;36190;54.980;73.388;2022-07-05T10:52:21;98332.34;;;22.07;66.35
50292;BME280;36190;54.980;73.388;2022-07-05T10:55:18;98332.47;;;22.16;66.64
50292;BME280;36190;54.980;73.388;2022-07-05T11:00:28;98337.47;;;22.42;65.69
50292;BME280;36190;54.980;73.388;2022-07-05T11:03:06;98342.78;;;22.52;65.85
50292;BME280;36190;54.980;73.388;2022-07-05T11:05:37;98348.22;;;22.52;65.81
50292;BME280;36190;54.980;73.388;2022-07-05T11:08:04;98344.19;;;22.50;65.54
50292;BME280;36190;54.980;73.388;2022-07-05T11:10:31;98348.75;;;22.49;65.62
50292;BME280;36190;54.980;73.388;2022-07-05T11:12:59;98349.38;;;22.46;65.40
50292;BME280;36190;54.980;73.388;2022-07-05T11:15:26;98351.16;;;22.37;65.05
50292;BME280;36190;54.980;73.388;2022-07-05T11:18:14;98359.78;;;22.25;65.09
50292;BME280;36190;54.980;73.388;2022-07-05T11:20:43;98360.88;;;22.05;65.80
50292;BME280;36190;54.980;73.388;2022-07-05T11:23:12;98360.72;;;21.96;65.77
50292;BME280;36190;54.980;73.388;2022-07-05T11:25:41;98355.16;;;21.87;65.66
50292;BME280;36190;54.980;73.388;2022-07-05T11:28:18;98357.34;;;21.85;65.50
50292;BME280;36190;54.980;73.388;2022-07-05T11:30:51;98358.16;;;21.86;65.48
50292;BME280;36190;54.980;73.388;2022-07-05T11:36:25;98354.72;;;21.80;65.67
50292;BME280;36190;54.980;73.388;2022-07-05T11:39:13;98357.28;;;21.71;65.98
50292;BME280;36190;54.980;73.388;2022-07-05T11:41:43;98349.91;;;21.52;66.12
50292;BME280;36190;54.980;73.388;2022-07-05T11:44:11;98350.81;;;21.42;66.52
50292;BME280;36190;54.980;73.388;2022-07-05T11:46:41;98359.59;;;21.34;66.91
50292;BME280;36190;54.980;73.388;2022-07-05T11:49:09;98361.59;;;21.28;67.09
50292;BME280;36190;54.980;73.388;2022-07-05T11:51:38;98366.25;;;21.23;67.14
50292;BME280;36190;54.980;73.388;2022-07-05T11:54:08;98368.19;;;21.17;67.55
50292;BME280;36190;54.980;73.388;2022-07-05T11:56:36;98366.44;;;21.07;67.73
50292;BME280;36190;54.980;73.388;2022-07-05T11:59:17;98369.94;;;21.08;68.23
50292;BME280;36190;54.980;73.388;2022-07-05T12:01:45;98368.38;;;21.01;67.88
50292;BME280;36190;54.980;73.388;2022-07-05T12:04:20;98370.91;;;20.93;68.69
50292;BME280;36190;54.980;73.388;2022-07-05T12:06:49;98372.63;;;20.78;68.94
50292;BME280;36190;54.980;73.388;2022-07-05T12:09:22;98377.25;;;20.78;69.30
50292;BME280;36190;54.980;73.388;2022-07-05T12:11:50;98374.84;;;20.76;69.31
50292;BME280;36190;54.980;73.388;2022-07-05T12:14:35;98375.94;;;20.75;69.31
50292;BME280;36190;54.980;73.388;2022-07-05T12:17:13;98364.66;;;20.63;69.95
50292;BME280;36190;54.980;73.388;2022-07-05T12:19:41;98376.09;;;20.54;69.99
50292;BME280;36190;54.980;73.388;2022-07-05T12:22:11;98375.66;;;20.42;70.48
50292;BME280;36190;54.980;73.388;2022-07-05T12:24:39;98383.88;;;20.31;70.74
50292;BME280;36190;54.980;73.388;2022-07-05T12:27:10;98385.84;;;20.20;71.27
50292;BME280;36190;54.980;73.388;2022-07-05T12:29:37;98383.69;;;20.17;71.44
50292;BME280;36190;54.980;73.388;2022-07-05T12:32:06;98393.72;;;20.17;71.59
50292;BME280;36190;54.980;73.388;2022-07-05T12:34:35;98379.16;;;20.08;71.76
50292;BME280;36190;54.980;73.388;2022-07-05T12:37:03;98377.31;;;20.03;72.39
50292;BME280;36190;54.980;73.388;2022-07-05T12:39:32;98389.50;;;20.00;72.49
50292;BME280;36190;54.980;73.388;2022-07-05T12:42:00;98376.50;;;19.97;72.47
50292;BME280;36190;54.980;73.388;2022-07-05T12:44:27;98393.03;;;19.96;72.73
50292;BME280;36190;54.980;73.388;2022-07-05T12:47:03;98396.53;;;19.96;73.00
50292;BME280;36190;54.980;73.388;2022-07-05T12:49:31;98394.94;;;19.95;72.73
50292;BME280;36190;54.980;73.388;2022-07-05T12:52:03;98410.09;;;19.91;72.79
50292;BME280;36190;54.980;73.388;2022-07-05T12:54:32;98407.13;;;19.87;73.03
50292;BME280;36190;54.980;73.388;2022-07-05T12:57:23;98403.06;;;19.85;73.15
50292;BME280;36190;54.980;73.388;2022-07-05T13:00:08;98409.03;;;19.82;73.26
50292;BME280;36190;54.980;73.388;2022-07-05T13:02:38;98407.97;;;19.77;73.51
50292;BME280;36190;54.980;73.388;2022-07-05T13:05:07;98410.44;;;19.74;73.73